createdAt,value
2018-06-23T07:12:21.685Z,98085.11
2018-06-23T07:14:50.197Z,98091.19
2018-06-23T07:17:18.707Z,98045.53
2018-06-23T07:19:47.201Z,98151.06
2018-06-23T07:22:15.763Z,98080.03
2018-06-23T07:24:44.460Z,98138.89
2018-06-23T07:27:12.929Z,98113.52
2018-06-23T07:29:41.505Z,98123.67
2018-06-23T07:32:10.155Z,98126.71
2018-06-23T07:34:38.676Z,98161.21
2018-06-23T07:37:07.150Z,98070.90
2018-06-23T07:39:35.606Z,98113.52
2018-06-23T07:42:04.161Z,98030.31
2018-06-23T07:44:32.670Z,97981.61
2018-06-23T07:47:01.172Z,97882.17
2018-06-23T07:49:29.706Z,97987.69
2018-06-23T07:51:58.189Z,98090.18
2018-06-23T07:54:27.142Z,98071.91
2018-06-23T07:56:55.694Z,97996.83
2018-06-23T07:59:24.210Z,98009.00
2018-06-23T08:01:53.050Z,98009.00
2018-06-23T08:04:21.550Z,97929.86
2018-06-23T08:06:50.037Z,97889.27
2018-06-23T08:09:18.521Z,97896.38
2018-06-23T08:11:47.105Z,97792.88
2018-06-23T08:14:15.525Z,97840.56
2018-06-23T08:16:44.034Z,97932.90
2018-06-23T08:19:12.590Z,97820.27
2018-06-23T08:21:41.273Z,97791.86
2018-06-23T08:24:09.768Z,97920.72
2018-06-23T08:26:38.316Z,97806.06
2018-06-23T08:29:06.765Z,97878.11
2018-06-23T08:31:35.330Z,98082.06
2018-06-23T08:34:03.974Z,98019.15
2018-06-23T08:36:32.514Z,97961.31
2018-06-23T08:39:01.031Z,97929.86
2018-06-23T08:41:29.537Z,97930.88
2018-06-23T08:43:58.033Z,97821.28
2018-06-23T08:46:26.575Z,97730.98
2018-06-23T08:48:55.072Z,97758.38
2018-06-23T08:51:23.735Z,97734.03
2018-06-23T08:53:52.255Z,97637.64
2018-06-23T08:56:20.817Z,97641.70
2018-06-23T08:58:49.325Z,97861.88
2018-06-23T09:01:17.841Z,97767.51
2018-06-23T09:03:46.294Z,97824.33
2018-06-23T09:06:14.845Z,97907.53
2018-06-23T09:08:43.334Z,97861.88
2018-06-23T09:11:12.062Z,97727.94
2018-06-23T09:13:40.761Z,97683.30
2018-06-23T09:16:09.273Z,97766.49
2018-06-23T09:18:37.957Z,97756.35
2018-06-23T09:21:06.710Z,97774.61
2018-06-23T09:23:35.173Z,97822.30
2018-06-23T09:26:03.671Z,97855.78
2018-06-23T09:28:32.545Z,97866.95
2018-06-23T09:31:01.057Z,97859.84
2018-06-23T09:33:29.585Z,97775.63
2018-06-23T09:35:58.800Z,97716.78
2018-06-23T09:38:28.616Z,97811.14
2018-06-23T09:40:57.123Z,97767.51
2018-06-23T09:43:25.625Z,97745.19
2018-06-23T09:45:54.125Z,97744.17
2018-06-23T09:48:22.702Z,97749.25
2018-06-23T09:50:51.458Z,97708.66
2018-06-23T09:53:19.931Z,97641.70
2018-06-23T09:55:48.497Z,97579.80
2018-06-23T09:58:16.922Z,97585.89
2018-06-23T10:00:45.433Z,97715.77
2018-06-23T10:03:13.986Z,97646.77
2018-06-23T10:05:42.589Z,97581.84
2018-06-23T10:08:11.115Z,97648.80
2018-06-23T10:10:39.601Z,97669.09
2018-06-23T10:13:08.109Z,97782.73
2018-06-23T10:15:36.617Z,97582.84
2018-06-23T10:18:05.120Z,97516.91
2018-06-23T10:20:33.649Z,97514.88
2018-06-23T10:23:02.655Z,97455.02
2018-06-23T10:25:31.145Z,97641.70
2018-06-23T10:27:59.639Z,97495.59
2018-06-23T10:30:28.205Z,97654.88
2018-06-23T10:32:56.694Z,97571.69
2018-06-23T10:35:25.153Z,97571.69
2018-06-23T10:37:53.650Z,97588.94
2018-06-23T10:40:22.117Z,97570.67
2018-06-23T10:42:50.704Z,97557.48
2018-06-23T10:45:50.034Z,97642.71
2018-06-23T10:48:18.661Z,97560.53
2018-06-23T10:50:47.182Z,97637.64
2018-06-23T10:53:15.675Z,97579.80
2018-06-23T10:55:44.237Z,97586.91
2018-06-23T10:58:12.738Z,97593.00
2018-06-23T11:00:41.253Z,97588.94
2018-06-23T11:03:09.736Z,97633.58
2018-06-23T11:05:38.246Z,97601.11
2018-06-23T11:08:06.731Z,97534.16
2018-06-23T11:10:35.238Z,97439.80
2018-06-23T11:13:03.709Z,97454.00
2018-06-23T11:15:32.232Z,97600.09
2018-06-23T11:18:00.730Z,97681.27
2018-06-23T11:20:29.287Z,97712.72
2018-06-23T11:22:57.801Z,97517.92
2018-06-23T11:25:26.347Z,97490.52
2018-06-23T11:27:55.010Z,97516.91
2018-06-23T11:30:23.490Z,97460.09
2018-06-23T11:32:54.567Z,97474.30
2018-06-23T11:35:23.043Z,97485.45
2018-06-23T11:37:51.878Z,97432.70
2018-06-23T11:40:20.356Z,97345.45
2018-06-23T11:42:48.957Z,97396.17
2018-06-23T11:45:17.434Z,97483.42
2018-06-23T11:47:45.919Z,97475.30
2018-06-23T11:50:14.445Z,97583.86
2018-06-23T11:52:42.924Z,97607.20
2018-06-23T11:55:12.514Z,97556.47
2018-06-23T11:57:40.997Z,97577.78
2018-06-23T12:00:10.761Z,97576.77
2018-06-23T12:02:39.358Z,97476.32
2018-06-23T12:05:08.227Z,97569.66
2018-06-23T12:07:36.886Z,97497.62
2018-06-23T12:10:05.523Z,97534.16
2018-06-23T12:12:34.011Z,97510.81
2018-06-23T12:15:02.569Z,97379.94
2018-06-23T12:17:31.145Z,97431.68
2018-06-23T12:19:59.726Z,97440.81
2018-06-23T12:22:28.265Z,97536.18
2018-06-23T12:24:57.246Z,97555.45
2018-06-23T12:27:25.834Z,97410.37
2018-06-23T12:29:54.331Z,97477.34
2018-06-23T12:32:22.950Z,97334.28
2018-06-23T12:34:51.440Z,97364.72
2018-06-23T12:37:19.946Z,97368.78
2018-06-23T12:39:48.510Z,97447.91
2018-06-23T12:42:17.402Z,97376.89
2018-06-23T12:44:45.891Z,97276.46
2018-06-23T12:47:14.415Z,97420.52
2018-06-23T12:49:42.917Z,97402.26
2018-06-23T12:52:11.431Z,97371.82
2018-06-23T12:54:39.954Z,97533.14
2018-06-23T12:57:08.438Z,97482.41
2018-06-23T12:59:36.973Z,97535.16
2018-06-23T13:02:05.507Z,97546.33
2018-06-23T13:04:33.985Z,97417.48
2018-06-23T13:07:02.453Z,97454.00
2018-06-23T13:09:30.993Z,97475.30
2018-06-23T13:11:59.508Z,97368.78
2018-06-23T13:14:28.010Z,97192.26
2018-06-23T13:16:56.554Z,97269.36
2018-06-23T13:19:25.182Z,97180.08
2018-06-23T13:21:53.730Z,97325.16
2018-06-23T13:24:22.287Z,97294.72
2018-06-23T13:26:50.783Z,97449.94
2018-06-23T13:29:19.321Z,97293.70
2018-06-23T13:31:47.850Z,97310.95
2018-06-23T13:34:16.421Z,97392.11
2018-06-23T13:36:45.019Z,97426.61
2018-06-23T13:39:13.519Z,97484.44
2018-06-23T13:41:42.494Z,97467.19
2018-06-23T13:44:11.014Z,97448.93
2018-06-23T13:46:39.530Z,97358.63
2018-06-23T13:49:08.159Z,97283.56
2018-06-23T13:51:36.663Z,97230.80
2018-06-23T13:54:10.399Z,97315.01
2018-06-23T13:56:39.109Z,97392.11
2018-06-23T13:59:07.591Z,97338.34
2018-06-23T14:01:36.158Z,97338.34
2018-06-23T14:04:04.799Z,97275.44
2018-06-23T14:06:33.319Z,97316.02
2018-06-23T14:09:01.801Z,97372.84
2018-06-23T14:11:31.304Z,97293.70
2018-06-23T14:13:59.809Z,97391.09
2018-06-23T14:16:28.984Z,97373.85
2018-06-23T14:18:57.570Z,97372.84
2018-06-23T14:21:26.082Z,97400.23
2018-06-23T14:23:54.633Z,97535.16
2018-06-23T14:26:23.121Z,97488.50
2018-06-23T14:28:51.653Z,97469.22
2018-06-23T14:31:21.176Z,97379.94
2018-06-23T14:33:49.771Z,97406.31
2018-06-23T14:36:18.415Z,97343.41
2018-06-23T14:38:46.994Z,97377.91
2018-06-23T14:41:15.780Z,97411.39
2018-06-23T14:43:44.804Z,97344.43
2018-06-23T14:46:13.983Z,97389.07
2018-06-23T14:48:42.484Z,97462.12
2018-06-23T14:51:12.660Z,97491.54
2018-06-23T14:53:41.211Z,97500.67
2018-06-23T14:56:11.465Z,97442.84
2018-06-23T14:58:45.538Z,97490.52
2018-06-23T15:01:14.086Z,97364.72
2018-06-23T15:03:42.690Z,97315.01
2018-06-23T15:06:11.487Z,97379.94
2018-06-23T15:08:51.243Z,97376.89
2018-06-23T15:11:30.931Z,97395.16
2018-06-23T15:14:00.406Z,97538.20
2018-06-23T15:16:28.898Z,97486.47
2018-06-23T15:18:57.485Z,97406.31
2018-06-23T15:21:26.022Z,97504.73
2018-06-23T15:23:54.645Z,97476.32
2018-06-23T15:26:23.173Z,97355.59
2018-06-23T15:28:51.672Z,97315.01
2018-06-23T15:31:22.619Z,97199.36
2018-06-23T15:33:51.150Z,97243.99
2018-06-23T15:36:20.319Z,97263.27
2018-06-23T15:38:48.902Z,97303.84
2018-06-23T15:41:17.461Z,97221.67
2018-06-23T15:43:45.949Z,97305.88
2018-06-23T15:46:14.441Z,97284.58
2018-06-23T15:48:43.126Z,97367.77
2018-06-23T15:51:12.931Z,97334.28
2018-06-23T15:53:41.669Z,97411.39
2018-06-23T15:56:10.218Z,97528.06
2018-06-23T15:58:38.805Z,97390.09
2018-06-23T16:01:07.470Z,97368.78
2018-06-23T16:03:35.969Z,97441.83
2018-06-23T16:06:04.477Z,97414.43
2018-06-23T16:08:33.166Z,97467.19
2018-06-23T16:11:01.668Z,97385.02
2018-06-23T16:13:30.594Z,97337.33
2018-06-23T16:15:59.349Z,97315.01
2018-06-23T16:18:27.854Z,97344.43
2018-06-23T16:20:56.349Z,97316.02
2018-06-23T16:23:25.046Z,97248.05
2018-06-23T16:25:53.556Z,97241.97
2018-06-23T16:28:22.247Z,97378.92
2018-06-23T16:30:50.777Z,97363.70
2018-06-23T16:33:19.242Z,97409.36
2018-06-23T16:35:47.787Z,97284.58
2018-06-23T16:38:16.345Z,97350.52
2018-06-23T16:40:44.994Z,97400.23
2018-06-23T16:43:13.472Z,97362.69
2018-06-23T16:45:41.954Z,97344.43
2018-06-23T16:48:10.479Z,97346.45
2018-06-23T16:50:39.661Z,97441.83
2018-06-23T16:53:08.469Z,97402.26
2018-06-23T16:55:37.001Z,97441.83
2018-06-23T16:58:05.534Z,97393.13
2018-06-23T17:00:34.243Z,97381.97
2018-06-23T17:03:04.927Z,97346.45
2018-06-23T17:05:33.761Z,97331.23
2018-06-23T17:08:02.317Z,97339.36
2018-06-23T17:10:30.862Z,97466.17
2018-06-23T17:12:59.337Z,97555.45
2018-06-23T17:15:27.865Z,97571.69
2018-06-23T17:17:58.432Z,97601.11
2018-06-23T17:20:27.011Z,97576.77
2018-06-23T17:22:55.574Z,97536.18
2018-06-23T17:25:24.085Z,97390.09
2018-06-23T17:27:54.987Z,97395.16
2018-06-23T17:30:24.191Z,97361.68
2018-06-23T17:32:52.749Z,97409.36
2018-06-23T17:35:23.823Z,97424.58
2018-06-23T17:37:52.371Z,97484.44
2018-06-23T17:40:20.933Z,97505.74
2018-06-23T17:42:49.449Z,97460.09
2018-06-23T17:45:19.219Z,97515.89
2018-06-23T17:47:47.834Z,97573.72
2018-06-23T17:50:17.417Z,97461.10
2018-06-23T17:52:45.965Z,97469.22
2018-06-23T17:55:14.515Z,97375.88
2018-06-23T17:57:43.204Z,97340.37
2018-06-23T18:00:11.571Z,97403.27
2018-06-23T18:02:40.764Z,97328.20
2018-06-23T18:05:09.318Z,97377.91
2018-06-23T18:07:37.817Z,97367.77
2018-06-23T18:10:06.341Z,97367.77
2018-06-23T18:12:34.941Z,97386.02
2018-06-23T18:15:03.511Z,97517.92
2018-06-23T18:17:32.034Z,97562.56
2018-06-23T18:20:00.585Z,97601.11
2018-06-23T18:22:29.214Z,97565.60
2018-06-23T18:24:59.236Z,97619.38
2018-06-23T18:27:27.899Z,97712.72
2018-06-23T18:29:56.481Z,97752.29
2018-06-23T18:32:25.162Z,97728.95
2018-06-23T18:34:53.686Z,97704.60
2018-06-23T18:37:22.172Z,97723.88
2018-06-23T18:39:50.656Z,97747.22
2018-06-23T18:42:19.806Z,97804.03
2018-06-23T18:44:49.250Z,97881.15
2018-06-23T18:47:18.124Z,97812.16
2018-06-23T18:49:46.860Z,97888.25
2018-06-23T18:52:15.516Z,97864.91
2018-06-23T18:54:44.098Z,97901.45
2018-06-23T18:57:12.685Z,97894.34
2018-06-23T18:59:41.177Z,97937.97
2018-06-23T19:02:09.731Z,97935.94
2018-06-23T19:04:38.248Z,97945.08
2018-06-23T19:07:06.742Z,98020.16
2018-06-23T19:09:35.254Z,98011.03
2018-06-23T19:12:03.722Z,97934.93
2018-06-23T19:14:35.487Z,97968.41
2018-06-23T19:17:04.800Z,97978.56
2018-06-23T19:19:33.391Z,97976.53
2018-06-23T19:22:01.952Z,97978.56
2018-06-23T19:24:30.579Z,97965.37
2018-06-23T19:26:59.136Z,98001.90
2018-06-23T19:29:27.774Z,97960.30
2018-06-23T19:31:56.399Z,97965.37
2018-06-23T19:34:24.965Z,97996.83
2018-06-23T19:36:53.453Z,98014.08
2018-06-23T19:39:21.914Z,97988.70
2018-06-23T19:41:50.455Z,98007.98
2018-06-23T19:44:20.532Z,98051.63
2018-06-23T19:46:49.069Z,98065.83
2018-06-23T19:49:17.616Z,98058.72
2018-06-23T19:51:46.132Z,98054.66
2018-06-23T19:54:14.645Z,98052.64
2018-06-23T19:56:43.165Z,98069.89
2018-06-23T19:59:11.950Z,98087.14
2018-06-23T20:01:40.785Z,98074.95
2018-06-23T20:04:09.323Z,98097.28
2018-06-23T20:06:37.857Z,98076.98
2018-06-23T20:09:08.262Z,98097.28
2018-06-23T20:11:36.801Z,98091.19
2018-06-23T20:14:05.620Z,98063.80
2018-06-23T20:16:34.201Z,98102.36
2018-06-23T20:19:02.710Z,98133.81
2018-06-23T20:21:31.213Z,98094.23
2018-06-23T20:24:00.194Z,98129.75
2018-06-23T20:26:28.746Z,98171.36
2018-06-23T20:28:57.331Z,98133.81
2018-06-23T20:31:26.275Z,98161.21
2018-06-23T20:33:54.874Z,98119.61
2018-06-23T20:36:23.421Z,98117.58
2018-06-23T20:38:51.916Z,98095.25
2018-06-23T20:41:20.652Z,98111.48
2018-06-23T20:43:49.198Z,98137.88
2018-06-23T20:46:17.689Z,98166.28
2018-06-23T20:48:47.757Z,98247.47
2018-06-23T20:51:16.258Z,98222.09
2018-06-23T20:53:44.787Z,98244.42
2018-06-23T20:56:15.347Z,98297.19
2018-06-23T20:58:43.846Z,98314.44
2018-06-23T21:01:12.426Z,98282.98
2018-06-23T21:03:40.912Z,98368.23
2018-06-23T21:06:09.776Z,98336.77
2018-06-23T21:08:38.289Z,98320.53
2018-06-23T21:11:06.874Z,98292.12
2018-06-23T21:13:35.437Z,98280.95
2018-06-23T21:16:03.959Z,98286.03
2018-06-23T21:18:32.518Z,98312.41
2018-06-23T21:21:01.085Z,98294.15
2018-06-23T21:23:29.675Z,98307.34
2018-06-23T21:25:58.226Z,98319.52
2018-06-23T21:28:26.863Z,98339.81
2018-06-23T21:30:55.438Z,98360.11
2018-06-23T21:33:24.162Z,98357.06
2018-06-23T21:35:52.595Z,98384.47
2018-06-23T21:38:21.097Z,98417.95
2018-06-23T21:40:49.727Z,98434.19
2018-06-23T21:43:18.233Z,98455.50
2018-06-23T21:45:46.718Z,98474.78
2018-06-23T21:48:15.229Z,98496.09
2018-06-23T21:50:43.702Z,98505.23
2018-06-23T21:53:12.631Z,98513.34
2018-06-23T21:55:41.051Z,98512.33
2018-06-23T21:58:10.083Z,98512.33
2018-06-23T22:00:40.852Z,98503.20
2018-06-23T22:03:10.889Z,98499.14
2018-06-23T22:05:39.427Z,98537.70
2018-06-23T22:08:08.744Z,98516.39
2018-06-23T22:10:37.411Z,98548.88
2018-06-23T22:13:06.270Z,98515.37
2018-06-23T22:15:34.893Z,98547.86
2018-06-23T22:18:03.415Z,98572.21
2018-06-23T22:20:31.981Z,98535.67
2018-06-23T22:23:00.704Z,98522.48
2018-06-23T22:25:29.207Z,98505.23
2018-06-23T22:27:57.860Z,98504.22
2018-06-23T22:30:26.353Z,98517.41
2018-06-23T22:32:54.864Z,98506.25
2018-06-23T22:35:23.362Z,98506.25
2018-06-23T22:37:51.879Z,98512.33
2018-06-23T22:40:20.749Z,98480.88
2018-06-23T22:42:49.257Z,98534.66
2018-06-23T22:45:17.770Z,98503.20
2018-06-23T22:47:46.386Z,98537.70
2018-06-23T22:50:14.894Z,98572.21
2018-06-23T22:52:43.406Z,98537.70
2018-06-23T22:55:11.961Z,98552.93
2018-06-23T22:57:40.465Z,98546.84
2018-06-23T23:00:10.522Z,98504.22
2018-06-23T23:02:38.994Z,98549.88
2018-06-23T23:05:08.263Z,98525.53
2018-06-23T23:07:36.740Z,98561.05
2018-06-23T23:10:05.634Z,98554.95
2018-06-23T23:12:34.240Z,98584.39
2018-06-23T23:15:02.804Z,98536.69
2018-06-23T23:17:31.641Z,98566.13
2018-06-23T23:20:00.147Z,98559.02
2018-06-23T23:22:28.664Z,98585.41
2018-06-23T23:24:57.234Z,98594.54
2018-06-23T23:27:25.766Z,98599.61
2018-06-23T23:29:54.248Z,98573.23
2018-06-23T23:32:22.734Z,98594.54
2018-06-23T23:34:51.689Z,98589.47
2018-06-23T23:37:20.666Z,98604.69
2018-06-23T23:39:49.391Z,98638.18
2018-06-23T23:42:17.870Z,98629.05
2018-06-23T23:44:46.365Z,98653.41
2018-06-23T23:47:14.851Z,98647.31
2018-06-23T23:49:43.358Z,98590.48
2018-06-23T23:52:11.922Z,98556.98
2018-06-23T23:54:40.418Z,98580.33
2018-06-23T23:57:09.020Z,98561.05
2018-06-23T23:59:37.526Z,98548.88
